Terminal Aerodrome Forecast
Issued by NWS Sioux Falls, SD

Home | Current Version | Previous Version | Text Only | Print | Product List | Glossary Off
Versions: 1 2 3 4 5 6 7 8 9 10 11 12 13 14 15 16 17 18 19 20 21 22

215
FTUS43 KFSD 031550 AAA
TAFHON
TAF AMD
KHON 031550Z 0316/0412 16010KT P6SM OVC090
     FM031700 16014KT P6SM SCT030 OVC045
      TEMPO 0317/0320 6SM -SN OVC030
     FM032100 16014KT P6SM BKN060
     FM040000 17010KT P6SM SCT120
     FM040600 20006KT P6SM BKN040=

USA.gov is the U.S. government's official web portal to all federal, state and local government web resources and services.